Time;durP1;ratioP1;P1;durP2;ratioP2;P2;SDS_P1;SDS_P2;PMS_P1;PMS_P2;Temp;Humidity;BMP_temperature;BMP_pressure;BME280_temperature;BME280_humidity;BME280_pressure;Samples;Min_cycle;Max_cycle;Signal;HPM_P1;HPM_P2
2023/08/31 00:01:39;;;;;;;10.85;8.32;;;;;;;17.71;67.37;98447.69;4355755;32;34292;-81
2023/08/31 00:04:14;;;;;;;11.43;8.38;;;;;;;17.84;67.14;98450.00;4336602;32;34201;-82
2023/08/31 00:06:42;;;;;;;12.68;7.97;;;;;;;17.32;69.72;98462.72;4359394;32;34631;-82
2023/08/31 00:09:09;;;;;;;10.35;8.82;;;;;;;17.73;67.94;98459.00;4358509;32;34626;-81
2023/08/31 00:11:37;;;;;;;11.23;8.82;;;;;;;17.20;70.39;98465.66;4355695;32;33721;-83
2023/08/31 00:14:04;;;;;;;12.70;9.07;;;;;;;17.58;68.99;98466.41;4350658;32;33377;-84
2023/08/31 00:16:33;;;;;;;11.23;8.63;;;;;;;16.99;71.19;98462.66;4358612;32;33944;-83
2023/08/31 00:19:00;;;;;;;12.40;9.75;;;;;;;17.39;70.14;98464.28;4358429;32;34696;-81
2023/08/31 00:21:28;;;;;;;11.68;8.70;;;;;;;17.07;71.48;98459.00;4358356;32;33229;-82
2023/08/31 00:23:56;;;;;;;13.68;8.82;;;;;;;17.21;70.88;98452.50;4358291;32;33835;-86
2023/08/31 00:26:23;;;;;;;11.80;9.45;;;;;;;17.14;71.35;98455.31;4353563;32;33779;-81
2023/08/31 00:28:51;;;;;;;13.80;9.55;;;;;;;17.60;69.75;98452.38;4345217;33;33503;-88
2023/08/31 00:31:19;;;;;;;13.65;9.00;;;;;;;17.80;69.02;98453.59;4355837;32;34603;-81
2023/08/31 00:33:49;;;;;;;14.60;9.55;;;;;;;17.82;68.40;98457.06;4359520;32;34113;-84
2023/08/31 00:36:18;;;;;;;10.98;8.52;;;;;;;17.82;69.03;98463.16;4359037;32;33727;-81
2023/08/31 00:38:45;;;;;;;11.60;8.18;;;;;;;17.93;68.66;98465.50;4359559;32;34641;-81
2023/08/31 00:41:13;;;;;;;10.75;8.48;;;;;;;17.94;68.50;98464.56;4358733;32;34982;-89
2023/08/31 00:43:40;;;;;;;10.80;8.45;;;;;;;17.95;68.50;98466.28;4352999;32;34745;-87
2023/08/31 00:46:08;;;;;;;11.57;8.18;;;;;;;17.95;68.22;98459.28;4345106;33;33719;-81
2023/08/31 00:48:36;;;;;;;11.75;8.60;;;;;;;17.79;68.78;98457.12;4346589;33;33861;-82
2023/08/31 00:51:06;;;;;;;11.07;8.38;;;;;;;17.86;68.30;98450.81;4354820;32;34970;-87
2023/08/31 00:53:36;;;;;;;14.13;9.57;;;;;;;17.77;68.59;98453.69;4360355;32;34879;-82
2023/08/31 00:56:03;;;;;;;13.40;9.70;;;;;;;17.53;69.55;98471.78;4361630;32;33400;-81
2023/08/31 00:58:32;;;;;;;12.43;9.25;;;;;;;17.71;69.00;98473.03;4348195;32;34097;-85
2023/08/31 01:01:11;;;;;;;11.95;9.10;;;;;;;17.97;68.07;98473.22;4361097;32;35108;-81
2023/08/31 01:04:04;;;;;;;10.65;8.27;;;;;;;18.07;67.98;98472.94;4361379;32;35011;-82
2023/08/31 01:06:37;;;;;;;12.57;8.55;;;;;;;18.31;67.13;98476.63;4361307;32;34440;-82
2023/08/31 01:09:20;;;;;;;10.95;8.07;;;;;;;18.18;67.31;98482.25;4347617;32;34046;-82
2023/08/31 01:12:10;;;;;;;12.95;8.00;;;;;;;18.19;67.41;98480.47;4346321;33;35192;-83
2023/08/31 01:14:42;;;;;;;11.15;8.02;;;;;;;18.45;66.65;98483.19;4332966;33;34165;-81
2023/08/31 01:17:13;;;;;;;10.52;8.13;;;;;;;18.42;66.13;98480.66;4333282;32;33297;-82
2023/08/31 01:19:50;;;;;;;11.12;8.02;;;;;;;18.29;66.71;98481.91;4333062;33;33921;-82
2023/08/31 01:22:27;;;;;;;9.52;7.45;;;;;;;18.43;66.35;98487.62;4346148;33;34096;-85
2023/08/31 01:24:54;;;;;;;12.32;8.10;;;;;;;18.46;66.00;98482.28;4353491;32;34030;-80
2023/08/31 01:27:27;;;;;;;11.23;8.15;;;;;;;18.42;65.93;98493.78;4347081;32;34515;-87
2023/08/31 01:29:56;;;;;;;10.30;7.80;;;;;;;18.41;66.29;98499.06;4339728;33;34964;-84
2023/08/31 01:32:24;;;;;;;10.02;7.53;;;;;;;18.47;66.15;98494.50;4346456;33;33912;-82
2023/08/31 01:34:52;;;;;;;11.95;7.45;;;;;;;18.50;65.96;98488.31;4353525;32;34258;-82
2023/08/31 01:37:35;;;;;;;10.23;7.25;;;;;;;18.54;65.72;98484.69;4361019;32;34385;-83
2023/08/31 01:40:11;;;;;;;10.57;7.85;;;;;;;18.50;65.97;98490.06;4347807;32;33972;-82
2023/08/31 01:42:40;;;;;;;9.73;7.18;;;;;;;18.30;66.71;98481.03;4360438;32;35090;-82
2023/08/31 01:45:11;;;;;;;9.30;7.40;;;;;;;17.95;67.70;98480.25;4347045;32;33982;-83
2023/08/31 01:47:38;;;;;;;9.00;7.28;;;;;;;18.26;66.90;98483.75;4358494;32;82290;-81
2023/08/31 01:50:06;;;;;;;11.00;7.78;;;;;;;18.30;66.84;98488.06;4347470;32;33824;-83
2023/08/31 01:52:33;;;;;;;10.45;6.65;;;;;;;18.32;66.76;98484.44;4361216;32;34605;-83
2023/08/31 01:55:01;;;;;;;12.00;7.78;;;;;;;18.29;66.92;98483.69;4352201;32;34994;-82
2023/08/31 01:57:29;;;;;;;8.95;7.15;;;;;;;17.94;67.55;98488.19;4346047;32;33442;-83
2023/08/31 01:59:57;;;;;;;11.27;8.07;;;;;;;18.02;67.48;98480.94;4346756;32;34098;-83
2023/08/31 02:02:25;;;;;;;10.40;7.87;;;;;;;18.01;67.63;98483.63;4346273;33;35162;-82
2023/08/31 02:04:53;;;;;;;11.85;7.90;;;;;;;17.78;68.23;98487.75;4346068;32;33813;-82
2023/08/31 02:07:20;;;;;;;13.23;8.73;;;;;;;17.80;68.09;98485.94;4346171;33;34092;-82
2023/08/31 02:09:48;;;;;;;10.48;7.53;;;;;;;17.88;67.81;98483.97;4332600;33;34833;-82
2023/08/31 02:12:16;;;;;;;11.82;7.87;;;;;;;17.82;68.09;98485.91;4354648;32;33876;-83
2023/08/31 02:14:43;;;;;;;11.02;8.27;;;;;;;17.79;68.09;98480.72;4360940;32;34148;-83
2023/08/31 02:17:11;;;;;;;10.55;7.50;;;;;;;17.99;67.27;98487.16;4359314;32;33951;-83
2023/08/31 02:19:39;;;;;;;11.60;8.27;;;;;;;17.85;67.46;98484.06;4360875;32;34031;-83
2023/08/31 02:22:06;;;;;;;10.30;7.80;;;;;;;17.91;67.25;98483.87;4360638;32;34649;-85
2023/08/31 02:24:34;;;;;;;11.77;7.85;;;;;;;17.52;68.82;98486.63;4353474;32;34939;-84
2023/08/31 02:27:02;;;;;;;10.02;7.53;;;;;;;17.77;67.85;98500.88;4347009;32;34360;-83
2023/08/31 02:29:29;;;;;;;10.40;7.55;;;;;;;17.57;68.56;98502.25;4360720;32;33971;-82
2023/08/31 02:31:57;;;;;;;10.40;7.45;;;;;;;17.72;68.18;98506.22;4360744;32;34957;-84
2023/08/31 02:34:25;;;;;;;9.65;6.75;;;;;;;17.88;67.44;98504.06;4360006;32;35528;-83
2023/08/31 02:36:52;;;;;;;10.55;7.07;;;;;;;17.98;66.80;98500.31;4359884;32;34238;-85
2023/08/31 02:39:20;;;;;;;10.95;6.75;;;;;;;17.97;67.13;98498.59;4347290;32;33416;-83
2023/08/31 02:41:47;;;;;;;8.95;7.03;;;;;;;17.99;67.10;98502.00;4345900;33;34183;-82
2023/08/31 02:44:17;;;;;;;12.20;7.75;;;;;;;18.03;66.94;98497.53;4345779;33;33301;-83
2023/08/31 02:46:47;;;;;;;8.43;5.78;;;;;;;17.99;66.89;98508.16;4354296;32;33716;-82
2023/08/31 02:49:16;;;;;;;9.65;6.25;;;;;;;18.13;66.25;98501.63;4358772;32;33751;-83
2023/08/31 02:51:44;;;;;;;9.77;6.50;;;;;;;18.22;65.59;98498.75;4356209;32;34801;-83
2023/08/31 02:54:12;;;;;;;7.28;5.45;;;;;;;18.11;65.90;98506.09;4359432;32;33695;-83
2023/08/31 02:56:39;;;;;;;7.87;5.62;;;;;;;18.07;66.14;98499.16;4358864;32;34509;-90
2023/08/31 02:59:06;;;;;;;11.00;6.72;;;;;;;18.04;66.25;98501.91;4356300;32;33348;-85
2023/08/31 03:01:34;;;;;;;11.35;6.65;;;;;;;17.84;66.71;98498.06;4358343;32;36148;-84
2023/08/31 03:04:02;;;;;;;7.80;6.18;;;;;;;17.72;67.24;98498.34;4358031;32;34245;-84
2023/08/31 03:06:32;;;;;;;8.45;5.75;;;;;;;17.73;67.30;98498.31;4339507;33;33343;-83
2023/08/31 03:09:01;;;;;;;8.32;6.00;;;;;;;17.84;67.00;98495.47;4354130;32;33853;-83
2023/08/31 03:11:30;;;;;;;7.80;5.90;;;;;;;18.01;66.41;98494.13;4356366;32;34066;-83
2023/08/31 03:13:57;;;;;;;8.20;6.10;;;;;;;17.96;66.48;98496.88;4359110;32;35476;-84
2023/08/31 03:16:25;;;;;;;7.47;5.80;;;;;;;17.94;66.33;98489.03;4358088;32;34155;-89
2023/08/31 03:18:53;;;;;;;10.07;6.22;;;;;;;17.99;66.14;98494.16;4349762;32;33960;-83
2023/08/31 03:21:20;;;;;;;8.48;6.05;;;;;;;17.80;66.81;98496.41;4354905;32;33800;-83
2023/08/31 03:23:48;;;;;;;8.88;5.82;;;;;;;17.84;66.73;98498.06;4359087;32;34133;-84
2023/08/31 03:26:16;;;;;;;7.80;6.12;;;;;;;17.71;67.14;98500.13;4357831;32;33307;-84
2023/08/31 03:28:44;;;;;;;9.75;6.03;;;;;;;17.75;67.12;98506.19;4358515;32;33678;-87
2023/08/31 03:31:11;;;;;;;7.28;5.80;;;;;;;17.81;66.93;98510.41;4356272;32;34557;-91
2023/08/31 03:33:40;;;;;;;8.05;5.65;;;;;;;17.53;67.86;98518.94;4358652;32;33897;-83
2023/08/31 03:36:09;;;;;;;7.10;5.35;;;;;;;17.60;67.74;98514.41;4357590;32;33577;-84
2023/08/31 03:38:38;;;;;;;8.82;6.10;;;;;;;17.65;67.41;98513.41;4358056;32;34004;-84
2023/08/31 03:41:06;;;;;;;7.97;5.85;;;;;;;17.65;67.34;98517.75;4359341;32;34149;-84
2023/08/31 03:43:33;;;;;;;9.68;6.10;;;;;;;17.69;66.96;98520.28;4357375;32;33972;-84
2023/08/31 03:46:02;;;;;;;9.65;5.70;;;;;;;17.74;66.71;98518.41;4360418;32;34132;-85
2023/08/31 03:48:30;;;;;;;7.45;5.80;;;;;;;17.71;67.05;98517.63;4354608;32;33864;-84
2023/08/31 03:50:57;;;;;;;8.43;6.37;;;;;;;17.65;67.00;98518.66;4355230;32;34953;-84
2023/08/31 03:53:25;;;;;;;9.48;5.45;;;;;;;17.50;67.63;98519.91;4335029;33;33868;-82
2023/08/31 03:55:53;;;;;;;8.65;6.55;;;;;;;17.57;67.38;98515.34;4347481;32;33793;-81
2023/08/31 03:58:20;;;;;;;10.75;6.57;;;;;;;17.50;67.98;98524.25;4359826;32;33628;-85
2023/08/31 04:00:49;;;;;;;8.25;6.25;;;;;;;17.15;68.86;98518.12;4359689;32;34394;-89
2023/08/31 04:03:18;;;;;;;8.98;6.00;;;;;;;17.35;67.82;98512.44;4359940;32;34153;-83
2023/08/31 04:05:46;;;;;;;8.65;6.37;;;;;;;17.41;67.88;98517.50;4360330;32;33647;-82
2023/08/31 04:08:14;;;;;;;7.75;6.07;;;;;;;17.68;67.29;98530.78;4359748;32;33981;-82
2023/08/31 04:10:42;;;;;;;7.43;5.82;;;;;;;17.59;67.12;98531.03;4359887;32;34485;-84
2023/08/31 04:13:09;;;;;;;8.27;5.47;;;;;;;17.69;66.91;98532.50;4359886;32;34941;-84
2023/08/31 04:15:37;;;;;;;7.37;5.62;;;;;;;17.83;66.40;98537.44;4359409;32;33715;-83
2023/08/31 04:18:05;;;;;;;8.75;5.85;;;;;;;17.78;66.63;98536.69;4345998;32;34863;-83
2023/08/31 04:20:33;;;;;;;8.23;6.07;;;;;;;17.55;67.43;98542.50;4359035;32;35833;-83
2023/08/31 04:23:00;;;;;;;9.55;6.43;;;;;;;17.73;67.43;98537.66;4346460;32;33909;-83
2023/08/31 04:25:31;;;;;;;9.13;6.68;;;;;;;17.45;68.05;98541.88;4360065;32;33616;-83
2023/08/31 04:27:58;;;;;;;8.73;6.20;;;;;;;17.31;68.31;98544.81;4349726;32;34219;-90
2023/08/31 04:30:26;;;;;;;7.60;6.28;;;;;;;17.52;67.07;98546.06;4344701;33;35082;-83
2023/08/31 04:32:54;;;;;;;7.97;6.32;;;;;;;17.33;68.33;98545.66;4345072;32;33905;-81
2023/08/31 04:35:21;;;;;;;7.78;6.32;;;;;;;17.18;69.17;98551.25;4345137;33;34445;-83
2023/08/31 04:37:49;;;;;;;9.13;7.03;;;;;;;17.27;68.62;98554.53;4348846;32;34008;-86
2023/08/31 04:40:17;;;;;;;7.85;5.97;;;;;;;17.43;67.95;98564.66;4359463;32;34180;-82
2023/08/31 04:42:44;;;;;;;11.32;6.95;;;;;;;17.12;69.52;98575.84;4359495;32;34053;-83
2023/08/31 04:45:12;;;;;;;9.63;6.60;;;;;;;16.92;70.19;98564.97;4359347;32;33769;-85
2023/08/31 04:47:40;;;;;;;9.00;6.53;;;;;;;16.87;70.98;98565.06;4351483;32;34546;-83
2023/08/31 04:50:07;;;;;;;9.13;6.82;;;;;;;16.60;72.15;98573.50;4344931;32;35025;-82
2023/08/31 04:52:35;;;;;;;9.82;6.25;;;;;;;16.81;71.30;98572.19;4344548;32;34732;-81
2023/08/31 04:55:07;;;;;;;8.45;6.90;;;;;;;16.93;71.06;98571.91;4345761;32;34522;-88
2023/08/31 04:57:35;;;;;;;9.45;7.57;;;;;;;17.19;70.12;98572.16;4340423;32;34128;-81
2023/08/31 05:00:04;;;;;;;9.80;7.12;;;;;;;17.01;70.87;98570.00;4345789;32;34311;-83
2023/08/31 05:02:32;;;;;;;9.50;8.18;;;;;;;17.21;70.00;98575.63;4348420;32;34244;-86
2023/08/31 05:04:59;;;;;;;10.50;7.35;;;;;;;17.33;69.51;98579.72;4359018;32;33897;-87
2023/08/31 05:07:27;;;;;;;9.43;6.97;;;;;;;17.18;70.40;98588.78;4358574;32;35614;-87
2023/08/31 05:09:54;;;;;;;9.05;7.37;;;;;;;17.49;69.10;98593.31;4359160;32;35131;-83
2023/08/31 05:12:22;;;;;;;8.88;6.80;;;;;;;17.57;68.89;98599.22;4359403;32;33643;-81
2023/08/31 05:14:50;;;;;;;9.65;7.05;;;;;;;17.32;69.46;98596.34;4358613;32;34205;-83
2023/08/31 05:17:17;;;;;;;8.55;6.85;;;;;;;17.61;69.16;98602.62;4359480;32;34786;-83
2023/08/31 05:19:47;;;;;;;8.57;6.70;;;;;;;18.14;67.84;98603.88;4359223;32;34297;-83
2023/08/31 05:22:14;;;;;;;9.48;6.60;;;;;;;17.96;68.22;98614.91;4358955;32;33988;-82
2023/08/31 05:24:42;;;;;;;9.32;6.62;;;;;;;17.78;68.44;98608.34;4352224;32;34440;-89
2023/08/31 05:27:09;;;;;;;7.97;6.30;;;;;;;18.28;66.66;98614.03;4352209;32;34024;-83
2023/08/31 05:29:37;;;;;;;9.45;7.28;;;;;;;18.20;66.65;98605.50;4358268;32;35183;-86
2023/08/31 05:32:05;;;;;;;10.13;6.70;;;;;;;18.12;67.21;98620.59;4353259;32;35020;-86
2023/08/31 05:34:37;;;;;;;8.30;6.40;;;;;;;18.17;67.01;98618.69;4359823;32;34200;-83
2023/08/31 05:37:05;;;;;;;11.77;7.10;;;;;;;17.85;68.50;98625.66;4360955;32;34044;-84
2023/08/31 05:39:32;;;;;;;10.65;7.62;;;;;;;17.84;68.96;98628.28;4361347;32;34353;-94
2023/08/31 05:42:00;;;;;;;11.32;7.28;;;;;;;17.30;70.30;98632.19;4361271;32;34265;-86
2023/08/31 05:44:30;;;;;;;12.07;6.97;;;;;;;17.40;70.14;98636.31;4360933;32;34507;-83
2023/08/31 05:46:58;;;;;;;10.77;7.40;;;;;;;17.45;69.27;98641.44;4347197;32;33772;-82
2023/08/31 05:49:25;;;;;;;9.35;7.15;;;;;;;17.58;69.68;98637.66;4357126;32;33961;-83
2023/08/31 05:51:53;;;;;;;10.40;7.43;;;;;;;17.96;68.83;98638.50;4359012;32;34146;-83
2023/08/31 05:54:20;;;;;;;8.95;6.70;;;;;;;18.47;67.51;98635.38;4360201;32;34372;-89
2023/08/31 05:56:48;;;;;;;8.73;6.37;;;;;;;18.29;67.38;98646.38;4360673;32;34340;-83
2023/08/31 05:59:16;;;;;;;9.73;6.57;;;;;;;18.22;67.35;98650.91;4361098;32;33830;-82
2023/08/31 06:01:43;;;;;;;7.15;5.95;;;;;;;18.28;67.43;98648.12;4361447;32;33926;-83
2023/08/31 06:04:11;;;;;;;6.80;5.82;;;;;;;18.40;67.13;98654.81;4352499;32;33686;-83
2023/08/31 06:06:39;;;;;;;7.65;6.40;;;;;;;18.56;66.35;98656.16;4352128;32;34261;-83
2023/08/31 06:09:07;;;;;;;8.40;6.32;;;;;;;18.14;67.48;98669.47;4360970;32;34215;-83
2023/08/31 06:11:35;;;;;;;9.93;6.22;;;;;;;17.87;68.61;98665.78;4360849;32;35063;-83
2023/08/31 06:14:03;;;;;;;9.07;5.78;;;;;;;18.21;67.83;98675.44;4350520;32;35095;-83
2023/08/31 06:16:31;;;;;;;6.78;5.20;;;;;;;18.27;67.57;98672.66;4357549;32;34772;-88
2023/08/31 06:18:58;;;;;;;7.65;5.40;;;;;;;18.63;66.37;98670.78;4355136;32;34133;-81
2023/08/31 06:21:26;;;;;;;8.90;5.60;;;;;;;17.80;68.53;98676.47;4360936;32;33534;-83
2023/08/31 06:23:53;;;;;;;7.75;5.87;;;;;;;18.26;66.91;98681.44;4359590;32;34584;-82
2023/08/31 06:26:21;;;;;;;7.18;5.90;;;;;;;18.57;66.05;98678.00;4358224;32;34108;-83
2023/08/31 06:28:50;;;;;;;7.75;5.87;;;;;;;18.32;67.18;98691.75;4355726;32;33947;-82
2023/08/31 06:31:19;;;;;;;7.30;5.60;;;;;;;18.41;66.12;98688.03;4356781;32;34975;-84
2023/08/31 06:33:47;;;;;;;7.85;5.15;;;;;;;18.43;67.05;98692.34;4345714;33;33100;-83
2023/08/31 06:36:14;;;;;;;8.73;5.35;;;;;;;18.75;65.48;98698.50;4345962;33;34763;-84
2023/08/31 06:38:41;;;;;;;9.60;5.00;;;;;;;18.65;66.15;98694.41;4346209;32;35568;-83
2023/08/31 06:41:09;;;;;;;8.65;5.07;;;;;;;18.76;65.07;98689.75;4345548;33;34927;-84
2023/08/31 06:43:37;;;;;;;6.93;4.93;;;;;;;18.63;66.33;98688.31;4346888;32;33668;-82
2023/08/31 06:46:04;;;;;;;9.05;5.30;;;;;;;18.88;64.40;98691.16;4354808;32;34907;-83
2023/08/31 06:48:52;;;;;;;7.90;5.90;;;;;;;18.55;66.61;98690.28;4346190;32;34878;-85
2023/08/31 06:51:20;;;;;;;8.30;5.35;;;;;;;18.71;65.29;98700.38;4345908;33;34303;-86
2023/08/31 06:53:51;;;;;;;8.00;5.47;;;;;;;18.95;64.82;98704.06;4348694;32;34893;-81
2023/08/31 06:56:19;;;;;;;7.32;5.60;;;;;;;18.95;65.16;98697.97;4359239;32;33685;-86
2023/08/31 06:58:47;;;;;;;8.63;5.25;;;;;;;19.23;64.24;98700.63;4346311;32;34545;-82
2023/08/31 07:01:14;;;;;;;7.53;5.75;;;;;;;19.08;64.73;98707.19;4360264;32;34394;-83
2023/08/31 07:03:42;;;;;;;9.00;5.20;;;;;;;18.57;67.02;98714.75;4360647;32;33649;-84
2023/08/31 07:06:11;;;;;;;10.88;5.55;;;;;;;18.62;67.31;98718.97;4350036;32;33475;-83
2023/08/31 07:08:40;;;;;;;8.50;5.07;;;;;;;18.73;66.53;98726.59;4345582;33;34998;-84
2023/08/31 07:11:08;;;;;;;6.05;4.75;;;;;;;18.95;65.53;98732.97;4345813;33;34178;-83
2023/08/31 07:13:35;;;;;;;6.82;4.78;;;;;;;19.36;63.90;98723.03;4345881;33;33824;-88
2023/08/31 07:16:04;;;;;;;8.25;5.60;;;;;;;19.53;63.83;98724.28;4345508;33;33562;-90
2023/08/31 07:18:31;;;;;;;7.62;5.47;;;;;;;19.24;64.61;98727.78;4345708;33;33718;-92
2023/08/31 07:20:59;;;;;;;5.75;4.05;;;;;;;19.16;65.79;98733.25;4351994;32;34299;-89
2023/08/31 07:23:27;;;;;;;5.87;4.50;;;;;;;19.13;66.24;98733.34;4344300;33;33555;-91
2023/08/31 07:25:59;;;;;;;6.53;4.32;;;;;;;19.76;63.81;98728.84;4354546;32;34705;-90
2023/08/31 07:28:27;;;;;;;6.75;4.40;;;;;;;19.66;64.37;98736.16;4355404;32;34394;-86
2023/08/31 07:31:05;;;;;;;6.87;3.90;;;;;;;20.10;62.42;98736.53;4357621;32;34268;-87
2023/08/31 07:33:34;;;;;;;9.38;4.37;;;;;;;19.90;63.33;98731.91;4333777;33;33612;-88
2023/08/31 07:36:04;;;;;;;6.75;4.20;;;;;;;20.15;62.17;98738.13;4338373;32;33801;-85
2023/08/31 07:38:32;;;;;;;6.87;4.00;;;;;;;20.36;62.35;98744.41;4334220;33;35189;-88
2023/08/31 07:41:00;;;;;;;6.82;4.10;;;;;;;20.46;61.34;98747.62;4345396;32;34489;-89
2023/08/31 07:43:27;;;;;;;6.20;3.95;;;;;;;20.59;61.31;98745.44;4350677;32;33860;-84
2023/08/31 07:45:55;;;;;;;5.30;3.62;;;;;;;19.99;62.91;98750.03;4358582;32;34700;-84
2023/08/31 07:48:24;;;;;;;11.85;4.53;;;;;;;20.50;61.28;98748.41;4352307;32;33835;-85
2023/08/31 07:50:52;;;;;;;5.22;3.90;;;;;;;20.45;61.71;98751.13;4343753;32;33752;-91
2023/08/31 07:53:19;;;;;;;7.47;3.87;;;;;;;20.59;60.56;98755.97;4357301;32;34365;-86
2023/08/31 07:55:54;;;;;;;6.75;3.80;;;;;;;20.75;59.80;98751.87;4364046;32;34671;-93
2023/08/31 07:58:22;;;;;;;5.80;4.07;;;;;;;20.75;59.93;98745.75;4346028;32;34403;-88
2023/08/31 08:00:57;;;;;;;6.85;3.95;;;;;;;20.68;59.94;98749.53;4338663;33;34311;-85
2023/08/31 08:03:25;;;;;;;6.47;3.67;;;;;;;20.82;60.99;98756.03;4334934;32;33565;-84
2023/08/31 08:05:53;;;;;;;6.30;3.53;;;;;;;20.88;59.91;98758.47;4353890;32;34760;-84
2023/08/31 08:08:20;;;;;;;7.40;3.33;;;;;;;20.95;58.45;98766.13;4363817;32;34334;-86
2023/08/31 08:10:52;;;;;;;6.30;3.62;;;;;;;20.97;58.62;98762.53;4345170;32;35043;-87
2023/08/31 08:13:20;;;;;;;7.85;4.00;;;;;;;20.37;60.03;98764.56;4346037;32;33407;-86
2023/08/31 08:15:47;;;;;;;7.32;4.32;;;;;;;20.19;60.02;98767.78;4339951;33;33730;-86
2023/08/31 08:18:15;;;;;;;6.25;3.50;;;;;;;20.09;60.62;98769.88;4331688;33;34018;-88
2023/08/31 08:20:42;;;;;;;6.87;4.12;;;;;;;20.49;60.39;98765.97;4355790;32;34901;-87
2023/08/31 08:23:10;;;;;;;6.55;3.35;;;;;;;20.62;59.58;98771.69;4359631;32;33750;-87
2023/08/31 08:25:38;;;;;;;8.38;3.70;;;;;;;20.74;59.78;98773.03;4359794;32;33959;-83
2023/08/31 08:28:06;;;;;;;6.28;4.25;;;;;;;20.22;60.80;98778.22;4358671;32;34263;-86
2023/08/31 08:30:33;;;;;;;8.10;3.35;;;;;;;20.41;59.60;98778.50;4359619;32;34059;-85
2023/08/31 08:33:01;;;;;;;6.25;3.25;;;;;;;21.10;57.88;98770.84;4347719;32;34417;-86
2023/08/31 08:35:28;;;;;;;4.82;3.35;;;;;;;21.36;57.08;98776.06;4344777;33;33871;-86
2023/08/31 08:37:56;;;;;;;6.30;3.10;;;;;;;21.43;56.89;98776.69;4344616;33;34975;-87
2023/08/31 08:40:24;;;;;;;5.03;3.05;;;;;;;21.16;57.75;98773.28;4344766;33;33868;-88
2023/08/31 08:42:53;;;;;;;4.65;2.87;;;;;;;21.74;56.58;98775.53;4331442;33;33746;-87
2023/08/31 08:45:24;;;;;;;4.78;3.22;;;;;;;21.25;58.02;98775.59;4330983;33;33996;-85
2023/08/31 08:47:52;;;;;;;4.55;2.75;;;;;;;21.46;57.21;98770.44;4344744;33;34386;-88
2023/08/31 08:50:20;;;;;;;5.20;2.50;;;;;;;21.97;54.45;98775.50;4344583;33;33708;-85
2023/08/31 08:52:48;;;;;;;4.75;2.60;;;;;;;22.02;53.77;98767.38;4344330;33;33583;-85
2023/08/31 08:55:16;;;;;;;3.47;2.00;;;;;;;22.33;55.27;98780.22;4343375;33;33886;-88
2023/08/31 08:57:46;;;;;;;4.95;2.47;;;;;;;22.48;52.83;98776.94;4331648;33;33872;-86
2023/08/31 09:00:15;;;;;;;4.70;2.03;;;;;;;22.38;52.56;98777.41;4344896;33;33910;-88
2023/08/31 09:02:44;;;;;;;3.80;2.10;;;;;;;22.74;51.96;98794.34;4344477;33;33704;-84
2023/08/31 09:05:11;;;;;;;4.30;2.10;;;;;;;22.82;51.61;98789.59;4344309;33;35358;-84
2023/08/31 09:08:07;;;;;;;5.45;1.92;;;;;;;23.10;50.79;98793.69;4332038;32;33768;-84
2023/08/31 09:10:44;;;;;;;3.92;1.80;;;;;;;23.23;49.16;98794.03;4347976;32;34349;-82
2023/08/31 09:13:14;;;;;;;4.90;1.87;;;;;;;23.35;50.50;98793.47;4361474;32;34486;-81
2023/08/31 09:15:44;;;;;;;3.83;1.92;;;;;;;23.41;48.93;98792.31;4361183;32;34140;-87
2023/08/31 09:18:28;;;;;;;4.25;2.00;;;;;;;23.40;47.23;98796.75;4347617;32;34905;-84
2023/08/31 09:20:56;;;;;;;5.83;1.80;;;;;;;22.89;48.73;98806.06;4347753;32;34009;-89
2023/08/31 09:23:25;;;;;;;3.60;1.67;;;;;;;23.44;48.48;98795.69;4357352;32;33739;-91
2023/08/31 09:25:54;;;;;;;4.93;2.22;;;;;;;23.37;48.92;98803.97;4337923;32;34407;-86
2023/08/31 09:28:26;;;;;;;3.95;1.95;;;;;;;23.50;48.41;98800.72;4336034;33;34539;-85
2023/08/31 09:31:04;;;;;;;6.37;2.20;;;;;;;23.37;49.47;98807.47;4333002;32;33971;-87
2023/08/31 09:33:34;;;;;;;4.78;2.03;;;;;;;23.63;50.54;98802.78;4340999;33;34525;-86
2023/08/31 09:36:03;;;;;;;5.82;1.77;;;;;;;23.46;49.16;98807.06;4342452;32;33938;-90
2023/08/31 09:38:31;;;;;;;6.82;2.00;;;;;;;23.73;48.14;98801.47;4361050;32;35025;-88
2023/08/31 09:41:06;;;;;;;4.18;2.25;;;;;;;23.97;48.37;98797.66;4361149;32;35083;-87
2023/08/31 09:43:34;;;;;;;3.45;1.73;;;;;;;24.08;48.44;98806.88;4347431;32;33495;-85
2023/08/31 09:46:04;;;;;;;6.68;1.90;;;;;;;24.44;43.93;98802.47;4346409;32;34594;-88
2023/08/31 09:48:31;;;;;;;5.22;1.65;;;;;;;23.89;45.87;98806.91;4336350;32;33873;-86
2023/08/31 09:51:00;;;;;;;3.20;1.62;;;;;;;24.35;43.70;98817.91;4354201;32;33985;-85
2023/08/31 09:53:29;;;;;;;4.15;2.10;;;;;;;23.46;45.89;98815.00;4344599;32;34427;-83
2023/08/31 09:55:57;;;;;;;3.67;1.77;;;;;;;23.49;47.06;98814.88;4346008;32;33949;-83
2023/08/31 09:58:25;;;;;;;4.75;1.80;;;;;;;23.68;46.68;98814.91;4361014;32;35022;-83
2023/08/31 10:00:52;;;;;;;6.03;2.00;;;;;;;23.61;46.96;98821.38;4361024;32;34297;-85
2023/08/31 10:03:20;;;;;;;6.22;2.00;;;;;;;23.83;47.29;98823.06;4356534;32;33188;-86
2023/08/31 10:05:50;;;;;;;6.60;2.00;;;;;;;23.74;45.91;98817.25;4347557;32;33683;-84
2023/08/31 10:08:18;;;;;;;3.65;2.03;;;;;;;23.87;47.09;98825.50;4347637;32;34814;-86
2023/08/31 10:10:47;;;;;;;3.55;1.65;;;;;;;23.90;47.21;98830.62;4347533;32;34106;-84
2023/08/31 10:13:15;;;;;;;4.47;2.10;;;;;;;23.48;47.00;98834.28;4360992;32;33722;-83
2023/08/31 10:15:44;;;;;;;5.03;2.20;;;;;;;23.52;49.12;98840.31;4360000;32;33909;-86
2023/08/31 10:18:13;;;;;;;4.20;1.98;;;;;;;23.51;48.33;98851.84;4356982;32;33787;-84
2023/08/31 10:20:42;;;;;;;7.22;2.40;;;;;;;23.33;48.21;98847.34;4360392;32;34833;-83
2023/08/31 10:23:10;;;;;;;6.45;2.55;;;;;;;22.58;49.55;98852.28;4347525;32;33071;-82
2023/08/31 10:25:50;;;;;;;5.68;2.33;;;;;;;22.82;49.81;98853.03;4361002;32;34942;-82
2023/08/31 10:28:25;;;;;;;4.97;2.45;;;;;;;22.89;52.40;98847.50;4355665;32;34213;-82
2023/08/31 10:31:03;;;;;;;4.45;1.92;;;;;;;22.67;49.67;98850.16;4347525;32;33081;-82
2023/08/31 10:33:35;;;;;;;5.15;1.80;;;;;;;22.67;50.05;98852.81;4360716;32;33621;-82
2023/08/31 10:36:02;;;;;;;5.05;1.67;;;;;;;22.84;48.89;98845.00;4360050;32;34238;-82
2023/08/31 10:38:33;;;;;;;3.30;1.52;;;;;;;22.89;48.23;98853.62;4360632;32;34193;-83
2023/08/31 10:41:07;;;;;;;4.22;1.95;;;;;;;22.65;48.95;98858.13;4347451;32;34268;-83
2023/08/31 10:43:51;;;;;;;3.55;1.70;;;;;;;22.71;49.38;98865.81;4360664;32;33771;-82
2023/08/31 10:46:32;;;;;;;4.35;1.70;;;;;;;22.44;49.28;98862.53;4358916;32;33656;-83
2023/08/31 10:49:09;;;;;;;3.55;1.75;;;;;;;22.68;49.80;98867.72;4358121;32;33875;-85
2023/08/31 10:51:38;;;;;;;4.72;1.60;;;;;;;22.59;48.85;98872.47;4346296;32;33956;-82
2023/08/31 10:54:18;;;;;;;4.95;1.70;;;;;;;22.68;48.79;98868.59;4333887;32;34338;-83
2023/08/31 10:56:54;;;;;;;4.78;1.90;;;;;;;22.71;48.57;98868.47;4357910;32;33573;-84
2023/08/31 11:02:42;;;;;;;3.50;1.90;;;;;;;22.61;48.28;98871.53;4452841;27;20097;-85
2023/08/31 11:05:20;;;;;;;4.75;1.73;;;;;;;22.85;49.46;98874.97;4347333;32;33441;-84
2023/08/31 11:07:52;;;;;;;5.82;1.80;;;;;;;22.71;49.50;98878.19;4360737;32;34769;-84
2023/08/31 11:10:27;;;;;;;4.10;2.20;;;;;;;22.99;48.91;98872.63;4360258;32;33863;-82
2023/08/31 11:12:57;;;;;;;3.97;1.87;;;;;;;23.30;49.74;98885.41;4346085;32;34615;-82
2023/08/31 11:15:26;;;;;;;3.75;2.10;;;;;;;23.46;48.61;98885.59;4347348;32;33361;-83
2023/08/31 11:17:54;;;;;;;4.47;1.77;;;;;;;23.24;48.31;98883.88;4336387;33;33714;-85
2023/08/31 11:20:27;;;;;;;4.07;1.80;;;;;;;23.23;48.05;98889.25;4333741;32;34820;-83
2023/08/31 11:22:56;;;;;;;4.28;1.70;;;;;;;23.01;48.18;98889.28;4360390;32;34267;-82
2023/08/31 11:25:24;;;;;;;3.35;1.73;;;;;;;23.35;47.64;98887.84;4334914;32;32663;-86
2023/08/31 11:27:58;;;;;;;5.03;1.85;;;;;;;23.06;49.09;98889.94;4360499;32;33965;-86
2023/08/31 11:30:28;;;;;;;3.83;1.45;;;;;;;23.31;48.54;98898.56;4359707;32;33736;-84
2023/08/31 11:32:55;;;;;;;3.30;1.80;;;;;;;23.49;47.84;98883.66;4360496;32;34309;-86
2023/08/31 11:35:24;;;;;;;5.00;1.65;;;;;;;23.36;48.08;98889.56;4346106;32;33544;-84
2023/08/31 11:37:55;;;;;;;6.72;1.80;;;;;;;23.64;50.11;98887.41;4347000;32;34550;-85
2023/08/31 11:40:23;;;;;;;4.32;2.28;;;;;;;23.18;47.25;98877.97;4334280;32;34348;-82
2023/08/31 11:42:51;;;;;;;3.40;2.03;;;;;;;23.21;47.27;98881.34;4360417;32;33942;-81
2023/08/31 11:45:21;;;;;;;3.92;2.08;;;;;;;23.48;46.85;98884.56;4346582;32;33699;-82